Time;durP1;ratioP1;P1;durP2;ratioP2;P2;SDS_P1;SDS_P2;PMS_P1;PMS_P2;Temp;Humidity;BMP_temperature;BMP_pressure;BME280_temperature;BME280_humidity;BME280_pressure;Samples;Min_cycle;Max_cycle;Signal;HPM_P1;HPM_P2
2024/02/28 00:01:21;;;;;;;38.75;16.30;;;10.20;99.90;;;;;;5026977;28;20438;-89
2024/02/28 00:03:46;;;;;;;37.30;16.13;;;10.20;99.90;;;;;;5019673;28;20438;-89
2024/02/28 00:06:12;;;;;;;35.15;15.85;;;10.20;99.90;;;;;;5021319;28;20034;-88
2024/02/28 00:08:38;;;;;;;32.90;15.40;;;10.20;99.90;;;;;;5030941;28;20544;-89
2024/02/28 00:11:03;;;;;;;34.70;15.13;;;10.20;99.90;;;;;;5030791;28;20498;-88
2024/02/28 00:13:29;;;;;;;33.50;16.00;;;10.20;99.90;;;;;;5024544;28;20657;-88
2024/02/28 00:15:54;;;;;;;36.45;15.43;;;10.20;99.90;;;;;;5024720;28;20499;-89
2024/02/28 00:18:20;;;;;;;39.65;16.60;;;10.20;99.90;;;;;;5034225;28;20028;-90
2024/02/28 00:20:45;;;;;;;36.28;15.90;;;10.20;99.90;;;;;;5023980;28;20024;-89
2024/02/28 00:23:11;;;;;;;38.95;16.65;;;10.20;99.90;;;;;;5019748;28;20043;-88
2024/02/28 00:25:37;;;;;;;35.05;16.83;;;10.20;99.90;;;;;;5023243;28;20030;-89
2024/02/28 00:28:03;;;;;;;33.97;15.82;;;10.20;99.90;;;;;;5025983;28;20109;-89
2024/02/28 00:30:28;;;;;;;38.17;16.38;;;10.20;99.90;;;;;;5029104;28;20021;-89
2024/02/28 00:32:54;;;;;;;39.70;17.30;;;10.20;99.90;;;;;;5018080;28;20160;-91
2024/02/28 00:35:20;;;;;;;36.95;16.67;;;10.20;99.90;;;;;;5018676;28;20092;-90
2024/02/28 00:37:45;;;;;;;37.08;17.08;;;10.20;99.90;;;;;;5029463;28;20033;-89
2024/02/28 00:40:12;;;;;;;38.13;17.15;;;10.20;99.90;;;;;;5019830;28;20022;-89
2024/02/28 00:42:37;;;;;;;37.42;17.02;;;10.20;99.90;;;;;;5018712;28;20019;-89
2024/02/28 00:45:03;;;;;;;34.05;15.73;;;10.20;99.90;;;;;;5022824;28;20540;-90
2024/02/28 00:47:29;;;;;;;42.65;16.90;;;10.20;99.90;;;;;;5028798;28;20013;-89
2024/02/28 00:49:54;;;;;;;44.15;17.50;;;10.20;99.90;;;;;;5017184;28;20029;-90
2024/02/28 00:52:20;;;;;;;34.22;16.67;;;10.20;99.90;;;;;;5014666;28;20026;-90
2024/02/28 00:54:45;;;;;;;41.35;17.20;;;10.20;99.90;;;;;;5021854;28;20018;-88
2024/02/28 00:57:11;;;;;;;40.13;16.80;;;10.20;99.90;;;;;;5013606;28;20033;-89
2024/02/28 00:59:36;;;;;;;40.50;16.90;;;10.20;99.90;;;;;;5027957;28;20033;-91
2024/02/28 01:02:03;;;;;;;38.15;17.92;;;10.20;99.90;;;;;;5017987;28;20031;-90
2024/02/28 01:04:28;;;;;;;44.38;18.25;;;10.20;99.90;;;;;;5023666;28;20030;-89
2024/02/28 01:06:54;;;;;;;43.40;16.98;;;10.20;99.90;;;;;;5016215;28;20131;-90
2024/02/28 01:09:21;;;;;;;38.63;16.83;;;10.20;99.90;;;;;;5019591;28;20022;-91
2024/02/28 01:11:47;;;;;;;39.40;17.05;;;10.20;99.90;;;;;;5029289;28;20105;-91
2024/02/28 01:14:12;;;;;;;37.33;16.88;;;10.20;99.90;;;;;;5034569;28;20033;-91
2024/02/28 01:16:38;;;;;;;36.60;16.92;;;10.20;99.90;;;;;;5023303;28;20026;-90
2024/02/28 01:19:03;;;;;;;38.33;16.65;;;10.20;99.90;;;;;;5011215;28;20028;-90
2024/02/28 01:21:29;;;;;;;38.30;17.38;;;10.20;99.90;;;;;;5041171;28;20009;-90
2024/02/28 01:23:54;;;;;;;40.03;17.13;;;10.20;99.90;;;;;;5024667;28;20045;-89
2024/02/28 01:26:22;;;;;;;44.72;17.25;;;10.20;99.90;;;;;;5029433;28;20674;-90
2024/02/28 01:28:48;;;;;;;42.63;16.88;;;10.10;99.90;;;;;;5031299;28;20017;-89
2024/02/28 01:31:14;;;;;;;38.45;17.75;;;10.20;99.90;;;;;;5022509;28;20026;-90
2024/02/28 01:33:40;;;;;;;38.55;17.92;;;10.10;99.90;;;;;;5018673;28;20025;-89
2024/02/28 01:36:06;;;;;;;41.22;17.42;;;10.10;99.90;;;;;;5016407;28;20029;-90
2024/02/28 01:38:32;;;;;;;36.30;17.33;;;10.20;99.90;;;;;;5022350;28;20022;-90
2024/02/28 01:40:58;;;;;;;39.22;17.48;;;10.20;99.90;;;;;;5017153;28;20406;-89
2024/02/28 01:43:23;;;;;;;36.25;16.23;;;10.10;99.90;;;;;;5028830;28;20025;-90
2024/02/28 01:45:50;;;;;;;45.28;18.70;;;10.10;99.90;;;;;;5035054;28;20055;-90
2024/02/28 01:48:16;;;;;;;38.25;17.98;;;10.20;99.90;;;;;;5023506;28;20491;-92
2024/02/28 01:50:42;;;;;;;45.65;17.92;;;10.20;99.90;;;;;;5022203;28;20100;-90
2024/02/28 01:53:09;;;;;;;40.15;17.60;;;10.20;99.90;;;;;;5015434;28;20054;-89
2024/02/28 01:55:36;;;;;;;41.63;17.92;;;10.10;99.90;;;;;;5014996;28;20018;-89
2024/02/28 01:58:05;;;;;;;44.53;17.50;;;10.20;99.90;;;;;;5021533;28;20029;-90
2024/02/28 02:00:32;;;;;;;36.83;16.67;;;10.20;99.90;;;;;;5024399;28;20013;-89
2024/02/28 02:02:59;;;;;;;43.25;18.60;;;10.20;99.90;;;;;;5030803;28;20022;-89
2024/02/28 02:05:25;;;;;;;44.05;19.10;;;10.20;99.90;;;;;;5036034;28;20010;-90
2024/02/28 02:07:51;;;;;;;46.08;17.77;;;10.20;99.90;;;;;;5032006;28;20022;-89
2024/02/28 02:10:17;;;;;;;36.72;17.10;;;10.10;99.90;;;;;;5032315;28;20017;-90
2024/02/28 02:12:42;;;;;;;42.15;17.17;;;10.20;99.90;;;;;;5033754;28;20099;-90
2024/02/28 02:15:08;;;;;;;40.17;18.65;;;10.20;99.90;;;;;;5025268;28;20021;-91
2024/02/28 02:17:33;;;;;;;50.05;19.27;;;10.10;99.90;;;;;;5026374;28;20020;-91
2024/02/28 02:19:59;;;;;;;39.95;16.80;;;10.20;99.90;;;;;;5031543;28;20522;-91
2024/02/28 02:22:31;;;;;;;43.42;19.25;;;10.20;99.90;;;;;;5017875;28;20057;-90
2024/02/28 02:24:57;;;;;;;46.97;17.80;;;10.10;99.90;;;;;;5027219;28;20021;-90
2024/02/28 02:27:25;;;;;;;47.53;18.60;;;10.10;99.90;;;;;;5015316;28;20029;-90
2024/02/28 02:29:50;;;;;;;40.30;18.02;;;10.10;99.90;;;;;;5031294;28;20412;-89
2024/02/28 02:32:16;;;;;;;41.22;17.38;;;10.10;99.90;;;;;;5014200;28;20032;-90
2024/02/28 02:34:41;;;;;;;44.83;18.77;;;10.10;99.90;;;;;;5021631;28;20077;-90
2024/02/28 02:37:08;;;;;;;40.63;17.70;;;10.10;99.90;;;;;;5027792;28;20064;-89
2024/02/28 02:39:34;;;;;;;40.40;19.30;;;10.10;99.90;;;;;;5020206;28;20026;-89
2024/02/28 02:41:59;;;;;;;44.63;18.77;;;10.10;99.90;;;;;;5020369;28;20056;-87
2024/02/28 02:44:25;;;;;;;44.90;18.08;;;10.10;99.90;;;;;;5025065;28;20044;-90
2024/02/28 02:46:51;;;;;;;46.28;18.98;;;10.20;99.90;;;;;;5021339;28;20375;-90
2024/02/28 02:49:18;;;;;;;44.22;18.65;;;10.10;99.90;;;;;;5021195;28;20029;-90
2024/02/28 02:51:44;;;;;;;39.78;17.90;;;10.10;99.90;;;;;;5026807;28;20037;-90
2024/02/28 02:54:10;;;;;;;40.45;16.92;;;10.10;99.90;;;;;;5020825;28;20048;-89
2024/02/28 02:56:36;;;;;;;38.17;17.73;;;10.10;99.90;;;;;;5021782;28;20502;-89
2024/02/28 02:59:01;;;;;;;40.80;16.75;;;10.10;99.90;;;;;;5020147;28;20037;-90
2024/02/28 03:01:27;;;;;;;43.78;17.38;;;10.10;99.90;;;;;;5022581;28;20033;-90
2024/02/28 03:03:52;;;;;;;38.83;17.40;;;10.20;99.90;;;;;;5035501;28;20049;-89
2024/02/28 03:06:18;;;;;;;37.65;17.52;;;10.10;99.90;;;;;;5026168;28;20023;-90
2024/02/28 03:08:43;;;;;;;42.80;20.08;;;10.10;99.90;;;;;;5034396;28;20375;-89
2024/02/28 03:11:09;;;;;;;44.53;17.70;;;10.20;99.90;;;;;;5028396;28;20033;-90
2024/02/28 03:13:35;;;;;;;41.97;18.10;;;10.10;99.90;;;;;;5019976;28;20067;-88
2024/02/28 03:16:02;;;;;;;43.53;18.63;;;10.10;99.90;;;;;;5014514;28;20113;-89
2024/02/28 03:18:28;;;;;;;40.70;18.05;;;10.10;99.90;;;;;;5021584;28;20021;-90
2024/02/28 03:20:54;;;;;;;39.55;18.10;;;10.10;99.90;;;;;;5017195;28;20100;-91
2024/02/28 03:23:19;;;;;;;45.83;18.05;;;10.10;99.90;;;;;;5018619;28;20480;-90
2024/02/28 03:25:45;;;;;;;41.40;17.92;;;10.10;99.90;;;;;;5019025;28;20018;-90
2024/02/28 03:28:10;;;;;;;38.83;17.83;;;10.10;99.90;;;;;;5024278;28;20033;-91
2024/02/28 03:30:36;;;;;;;43.60;18.67;;;10.10;99.90;;;;;;5033907;28;20025;-89
2024/02/28 03:33:01;;;;;;;42.78;18.80;;;10.10;99.90;;;;;;5028984;28;20022;-91
2024/02/28 03:35:27;;;;;;;40.85;17.63;;;10.10;99.90;;;;;;5025646;28;20484;-92
2024/02/28 03:37:52;;;;;;;44.75;18.45;;;10.10;99.90;;;;;;5024761;28;20501;-90
2024/02/28 03:40:18;;;;;;;39.88;17.73;;;10.10;99.90;;;;;;5022032;28;20042;-90
2024/02/28 03:42:44;;;;;;;49.33;18.85;;;10.10;99.90;;;;;;5033941;28;21031;-90
2024/02/28 03:45:09;;;;;;;51.63;20.08;;;10.10;99.90;;;;;;5031515;28;20013;-91
2024/02/28 03:47:35;;;;;;;48.75;17.85;;;10.10;99.90;;;;;;5025521;28;20017;-91
2024/02/28 03:50:03;;;;;;;46.13;19.98;;;10.10;99.90;;;;;;5022229;28;20017;-90
2024/02/28 03:52:30;;;;;;;50.05;18.95;;;10.10;99.90;;;;;;5029119;28;20021;-92
2024/02/28 03:54:55;;;;;;;45.30;17.67;;;10.10;99.90;;;;;;5030645;28;20467;-91
2024/02/28 03:57:21;;;;;;;42.00;17.20;;;10.10;99.90;;;;;;5028969;28;20021;-90
2024/02/28 03:59:46;;;;;;;41.50;17.70;;;10.10;99.90;;;;;;5026435;28;20099;-90
2024/02/28 04:02:12;;;;;;;40.50;18.02;;;10.10;99.90;;;;;;5039437;28;20048;-90
2024/02/28 04:04:37;;;;;;;45.25;18.35;;;10.10;99.90;;;;;;5038252;28;20020;-89
2024/02/28 04:07:03;;;;;;;46.10;17.90;;;10.10;99.90;;;;;;5018205;28;20017;-90
2024/02/28 04:09:28;;;;;;;45.20;18.92;;;10.10;99.90;;;;;;5020384;28;20010;-90
2024/02/28 04:11:54;;;;;;;40.60;18.25;;;10.10;99.90;;;;;;5031981;28;20105;-90
2024/02/28 04:14:19;;;;;;;39.22;18.40;;;10.10;99.90;;;;;;5014887;28;20045;-88
2024/02/28 04:16:45;;;;;;;47.67;19.85;;;10.10;99.90;;;;;;5025390;28;20021;-88
2024/02/28 04:19:11;;;;;;;42.80;16.60;;;10.10;99.90;;;;;;5026571;28;20674;-89
2024/02/28 04:21:37;;;;;;;52.72;19.33;;;10.10;99.90;;;;;;5014209;28;20030;-89
2024/02/28 04:24:04;;;;;;;42.85;18.75;;;10.10;99.90;;;;;;5031178;28;20460;-91
2024/02/28 04:26:29;;;;;;;44.78;18.33;;;10.10;99.90;;;;;;5025277;28;20028;-91
2024/02/28 04:28:56;;;;;;;54.35;20.13;;;10.10;99.90;;;;;;5032514;28;20022;-92
2024/02/28 04:31:21;;;;;;;48.38;20.65;;;10.10;99.90;;;;;;5016039;28;20021;-90
2024/02/28 04:33:47;;;;;;;48.28;18.73;;;10.10;99.90;;;;;;5028448;28;20100;-91
2024/02/28 04:36:12;;;;;;;46.80;19.25;;;10.10;99.90;;;;;;5023353;28;20029;-91
2024/02/28 04:38:38;;;;;;;50.42;18.88;;;10.10;99.90;;;;;;5024584;28;20021;-89
2024/02/28 04:41:04;;;;;;;51.05;19.83;;;10.10;99.90;;;;;;5029574;28;20014;-89
2024/02/28 04:43:29;;;;;;;41.17;17.50;;;10.10;99.90;;;;;;5026010;28;20101;-91
2024/02/28 04:45:55;;;;;;;46.85;18.92;;;10.10;99.90;;;;;;5019658;28;20022;-90
2024/02/28 04:48:20;;;;;;;45.33;18.85;;;10.10;99.90;;;;;;5032032;28;20060;-90
2024/02/28 04:50:46;;;;;;;46.15;19.10;;;10.10;99.90;;;;;;5032358;28;20028;-89
2024/02/28 04:53:11;;;;;;;48.90;19.05;;;10.10;99.90;;;;;;5013349;28;20052;-90
2024/02/28 04:55:37;;;;;;;42.50;18.58;;;10.10;99.90;;;;;;5024864;28;20024;-90
2024/02/28 04:58:02;;;;;;;50.60;19.02;;;10.10;99.90;;;;;;5026936;28;20699;-88
2024/02/28 05:00:28;;;;;;;40.70;19.00;;;10.10;99.90;;;;;;5039838;28;20017;-89
2024/02/28 05:02:53;;;;;;;48.03;19.30;;;10.10;99.90;;;;;;5024184;28;20030;-89
2024/02/28 05:05:19;;;;;;;43.70;18.83;;;10.10;99.90;;;;;;5030059;28;20025;-89
2024/02/28 05:07:44;;;;;;;46.17;19.52;;;10.10;99.90;;;;;;5028920;28;20018;-88
2024/02/28 05:10:10;;;;;;;55.67;19.80;;;10.10;99.90;;;;;;5018797;28;20026;-88
2024/02/28 05:12:36;;;;;;;42.65;17.23;;;10.10;99.90;;;;;;5031927;28;20034;-89
2024/02/28 05:15:01;;;;;;;42.47;17.13;;;10.10;99.90;;;;;;5018841;28;20033;-88
2024/02/28 05:17:27;;;;;;;45.55;19.45;;;10.10;99.90;;;;;;5022367;28;20026;-88
2024/02/28 05:19:53;;;;;;;43.42;17.63;;;10.10;99.90;;;;;;5022172;28;20040;-89
2024/02/28 05:22:18;;;;;;;42.67;17.50;;;10.10;99.90;;;;;;5030681;28;20018;-87
2024/02/28 05:24:46;;;;;;;47.88;19.30;;;10.10;99.90;;;;;;5020982;28;20022;-89
2024/02/28 05:27:12;;;;;;;58.58;19.90;;;10.10;99.90;;;;;;5029981;28;20043;-89
2024/02/28 05:29:37;;;;;;;42.03;18.80;;;10.10;99.90;;;;;;5019043;28;20532;-89
2024/02/28 05:32:03;;;;;;;45.22;18.58;;;10.10;99.90;;;;;;5032922;28;20034;-89
2024/02/28 05:34:29;;;;;;;37.55;16.50;;;10.10;99.90;;;;;;5025552;28;20041;-88
2024/02/28 05:36:55;;;;;;;45.50;18.45;;;10.10;99.90;;;;;;5030264;28;20040;-90
2024/02/28 05:39:20;;;;;;;46.83;19.58;;;10.10;99.90;;;;;;5022621;28;20030;-91
2024/02/28 05:41:46;;;;;;;41.42;16.70;;;10.10;99.90;;;;;;5031677;28;20134;-89
2024/02/28 05:44:12;;;;;;;48.85;17.90;;;10.10;99.90;;;;;;5021122;28;20097;-91
2024/02/28 05:46:38;;;;;;;43.55;19.08;;;10.10;99.90;;;;;;5031126;28;20045;-88
2024/02/28 05:49:04;;;;;;;47.35;18.23;;;10.10;99.90;;;;;;5031361;28;20033;-87
2024/02/28 05:51:29;;;;;;;45.08;18.52;;;10.10;99.90;;;;;;5024020;28;20028;-90
2024/02/28 05:53:55;;;;;;;40.08;16.92;;;10.10;99.90;;;;;;5031143;28;20025;-90
2024/02/28 05:56:21;;;;;;;38.35;16.52;;;10.10;99.90;;;;;;5040747;28;20033;-90
2024/02/28 05:58:47;;;;;;;44.28;18.33;;;10.10;99.90;;;;;;5033899;28;20022;-89
2024/02/28 06:01:17;;;;;;;39.67;17.48;;;10.10;99.90;;;;;;5027165;28;20021;-91
2024/02/28 06:03:43;;;;;;;45.00;17.17;;;10.10;99.90;;;;;;5035822;28;20020;-90
2024/02/28 06:06:08;;;;;;;41.92;17.25;;;10.10;99.90;;;;;;5030411;28;20010;-90
2024/02/28 06:08:37;;;;;;;41.60;16.70;;;10.10;99.90;;;;;;5017005;28;20180;-90
2024/02/28 06:11:02;;;;;;;44.88;17.83;;;10.10;99.90;;;;;;5031560;28;20512;-90
2024/02/28 06:13:31;;;;;;;41.15;17.52;;;10.10;99.90;;;;;;5023176;28;20026;-91
2024/02/28 06:15:56;;;;;;;40.40;16.73;;;10.10;99.90;;;;;;5024051;28;20021;-89
2024/02/28 06:18:23;;;;;;;46.28;17.25;;;10.00;99.90;;;;;;5025014;28;20022;-91
2024/02/28 06:20:49;;;;;;;44.80;17.60;;;10.10;99.90;;;;;;5029899;28;20032;-90
2024/02/28 06:23:15;;;;;;;38.67;17.08;;;10.10;99.90;;;;;;5033979;28;20391;-91
2024/02/28 06:25:40;;;;;;;46.47;18.05;;;10.10;99.90;;;;;;5032464;28;20105;-91
2024/02/28 06:28:06;;;;;;;48.13;18.27;;;10.00;99.90;;;;;;5015050;28;20042;-90
2024/02/28 06:30:33;;;;;;;43.35;17.38;;;10.10;99.90;;;;;;5026670;28;20471;-90
2024/02/28 06:33:01;;;;;;;44.25;17.77;;;10.00;99.90;;;;;;5034358;28;20124;-90
2024/02/28 06:35:27;;;;;;;41.00;17.92;;;10.10;99.90;;;;;;5033617;28;20037;-88
2024/02/28 06:37:53;;;;;;;40.75;17.63;;;10.00;99.90;;;;;;5028807;28;20075;-89
2024/02/28 06:40:20;;;;;;;43.30;17.13;;;10.10;99.90;;;;;;5023529;28;20025;-89
2024/02/28 06:42:45;;;;;;;43.70;17.73;;;10.10;99.90;;;;;;5016994;28;20072;-88
2024/02/28 06:45:11;;;;;;;41.00;17.52;;;10.10;99.90;;;;;;5029837;28;20014;-89
2024/02/28 06:47:36;;;;;;;42.45;17.05;;;10.00;99.90;;;;;;5024527;28;20022;-89
2024/02/28 06:50:06;;;;;;;43.40;17.27;;;10.10;99.90;;;;;;5023032;28;20375;-91
2024/02/28 06:52:31;;;;;;;46.58;18.40;;;10.00;99.90;;;;;;5029888;28;20486;-88
2024/02/28 06:54:57;;;;;;;39.75;17.60;;;10.00;99.90;;;;;;5027587;28;20032;-90
2024/02/28 06:57:23;;;;;;;42.72;17.20;;;10.10;99.90;;;;;;5028978;28;20022;-90
2024/02/28 06:59:49;;;;;;;42.53;17.17;;;10.00;99.90;;;;;;5031144;28;20112;-90
2024/02/28 07:02:14;;;;;;;39.38;17.13;;;10.10;99.90;;;;;;5029511;28;20025;-90
2024/02/28 07:04:42;;;;;;;41.22;17.67;;;10.10;99.90;;;;;;5026410;28;20041;-89
2024/02/28 07:07:07;;;;;;;40.47;16.92;;;10.10;99.90;;;;;;5016661;28;20028;-91
2024/02/28 07:09:33;;;;;;;43.58;17.58;;;10.10;99.90;;;;;;5018697;28;20487;-89
2024/02/28 07:12:00;;;;;;;45.03;16.88;;;10.10;99.90;;;;;;5024499;28;20026;-90
2024/02/28 07:14:26;;;;;;;44.75;16.65;;;10.10;99.90;;;;;;5033691;28;20148;-89
2024/02/28 07:16:52;;;;;;;50.95;18.50;;;10.10;99.90;;;;;;5030778;28;20053;-89
2024/02/28 07:19:18;;;;;;;37.92;16.40;;;10.10;99.90;;;;;;5028342;28;20483;-90
2024/02/28 07:21:44;;;;;;;45.22;16.00;;;10.10;99.90;;;;;;5032747;28;20018;-90
2024/02/28 07:24:10;;;;;;;42.60;17.80;;;10.10;99.90;;;;;;5030297;28;20060;-89
2024/02/28 07:26:35;;;;;;;38.83;17.33;;;10.10;99.90;;;;;;5033341;28;20475;-92
2024/02/28 07:29:01;;;;;;;36.08;17.48;;;10.00;99.90;;;;;;5031185;28;20025;-88
2024/02/28 07:31:26;;;;;;;46.33;17.77;;;10.10;99.90;;;;;;5024340;28;20021;-89
2024/02/28 07:33:52;;;;;;;45.78;17.08;;;10.10;99.90;;;;;;5032902;28;20115;-90
2024/02/28 07:36:17;;;;;;;38.53;18.20;;;10.10;99.90;;;;;;5014986;28;20030;-89
2024/02/28 07:38:43;;;;;;;37.50;16.65;;;10.00;99.90;;;;;;5018741;28;20018;-88
2024/02/28 07:41:09;;;;;;;42.17;16.90;;;10.00;99.90;;;;;;5030898;28;20426;-90
2024/02/28 07:43:38;;;;;;;40.90;16.85;;;10.00;99.90;;;;;;5021686;28;20022;-91
2024/02/28 07:46:08;;;;;;;39.35;17.55;;;10.10;99.90;;;;;;5031707;28;20021;-92
2024/02/28 07:48:33;;;;;;;36.38;16.92;;;10.10;99.90;;;;;;5025057;28;20472;-89
2024/02/28 07:50:59;;;;;;;42.65;18.38;;;10.00;99.90;;;;;;5027962;28;20088;-88
2024/02/28 07:53:24;;;;;;;36.90;16.20;;;10.10;99.90;;;;;;5028561;28;20028;-90
2024/02/28 07:55:50;;;;;;;38.20;17.00;;;10.10;99.90;;;;;;5033287;28;20048;-91
2024/02/28 07:58:16;;;;;;;43.72;17.75;;;10.10;99.90;;;;;;5024555;28;20017;-91
2024/02/28 08:00:43;;;;;;;42.13;17.50;;;10.10;99.90;;;;;;5015745;28;20468;-91
2024/02/28 08:03:09;;;;;;;38.97;17.88;;;10.10;99.90;;;;;;5019746;28;20068;-89
2024/02/28 08:05:38;;;;;;;45.15;18.17;;;10.10;99.90;;;;;;5024404;28;20014;-90
2024/02/28 08:08:05;;;;;;;44.63;16.97;;;10.10;99.90;;;;;;5018014;28;20018;-90
2024/02/28 08:10:31;;;;;;;39.55;16.77;;;10.10;99.90;;;;;;5018931;28;20026;-90
2024/02/28 08:12:56;;;;;;;43.03;17.50;;;10.10;99.90;;;;;;5032665;28;20029;-91
2024/02/28 08:15:22;;;;;;;42.95;18.92;;;10.10;99.90;;;;;;5022527;28;20068;-88
2024/02/28 08:17:47;;;;;;;42.53;17.10;;;10.10;99.90;;;;;;5032300;28;20028;-88
2024/02/28 08:20:13;;;;;;;39.92;16.40;;;10.10;99.90;;;;;;5032122;28;20067;-89
2024/02/28 08:22:39;;;;;;;40.60;16.98;;;10.10;99.90;;;;;;5014107;28;20045;-89
2024/02/28 08:25:05;;;;;;;42.78;16.65;;;10.10;99.90;;;;;;5024112;28;20022;-91
2024/02/28 08:27:30;;;;;;;44.00;17.42;;;10.10;99.90;;;;;;5015972;28;20018;-90
2024/02/28 08:29:56;;;;;;;45.20;18.35;;;10.10;99.90;;;;;;5026737;28;20028;-89
2024/02/28 08:32:21;;;;;;;40.47;17.15;;;10.10;99.90;;;;;;5014290;28;20028;-89
2024/02/28 08:34:47;;;;;;;45.88;17.95;;;10.10;99.90;;;;;;5029824;28;20464;-91
2024/02/28 08:37:13;;;;;;;41.40;17.63;;;10.10;99.90;;;;;;5037076;28;20031;-90
2024/02/28 08:39:40;;;;;;;37.15;16.38;;;10.10;99.90;;;;;;5023185;28;20535;-89
2024/02/28 08:42:05;;;;;;;36.83;15.73;;;10.10;99.90;;;;;;5035466;28;20021;-91
2024/02/28 08:44:31;;;;;;;47.35;17.67;;;10.10;99.90;;;;;;5031270;28;20091;-88
2024/02/28 08:46:57;;;;;;;43.83;17.80;;;10.10;99.90;;;;;;5034264;28;20033;-90
2024/02/28 08:49:22;;;;;;;48.47;18.23;;;10.10;99.90;;;;;;5033389;28;20029;-90
2024/02/28 08:51:48;;;;;;;46.72;17.45;;;10.10;99.90;;;;;;5022971;28;20384;-90
2024/02/28 08:54:13;;;;;;;38.75;17.05;;;10.10;99.90;;;;;;5032749;28;20132;-91
2024/02/28 08:56:39;;;;;;;39.53;16.63;;;10.10;99.90;;;;;;5024200;28;20024;-89
2024/02/28 08:59:05;;;;;;;44.25;17.67;;;10.20;99.90;;;;;;5022429;28;20105;-90
2024/02/28 09:01:30;;;;;;;43.50;16.58;;;10.10;99.90;;;;;;5031281;28;20024;-90
2024/02/28 09:03:56;;;;;;;39.42;16.98;;;10.10;99.90;;;;;;5028541;28;20698;-89
2024/02/28 09:06:21;;;;;;;50.60;19.00;;;10.20;99.90;;;;;;5025769;28;20030;-90
2024/02/28 09:08:47;;;;;;;42.13;18.08;;;10.10;99.90;;;;;;5023383;28;20029;-89
2024/02/28 09:11:12;;;;;;;46.08;17.48;;;10.10;99.90;;;;;;5032401;28;20022;-90
2024/02/28 09:13:38;;;;;;;41.10;17.20;;;10.20;99.90;;;;;;5035575;28;20017;-88
2024/02/28 09:16:04;;;;;;;44.53;17.77;;;10.20;99.90;;;;;;5028728;28;20013;-88
2024/02/28 09:18:29;;;;;;;43.28;16.98;;;10.10;99.90;;;;;;5031408;28;20399;-88
2024/02/28 09:20:55;;;;;;;40.60;15.90;;;10.10;99.90;;;;;;5029224;28;20025;-88
2024/02/28 09:23:21;;;;;;;48.53;17.10;;;10.10;99.90;;;;;;5028854;28;20582;-89
2024/02/28 09:25:46;;;;;;;38.85;16.40;;;10.10;99.90;;;;;;5025432;28;20472;-87
2024/02/28 09:28:13;;;;;;;45.67;17.27;;;10.10;99.90;;;;;;5020731;28;20029;-87
2024/02/28 09:30:39;;;;;;;41.05;15.63;;;10.20;99.90;;;;;;5024797;28;20018;-88
2024/02/28 09:33:05;;;;;;;44.13;17.80;;;10.20;99.90;;;;;;5020928;28;20033;-87
2024/02/28 09:35:30;;;;;;;39.92;15.10;;;10.20;99.90;;;;;;5029107;28;20480;-88
2024/02/28 09:37:56;;;;;;;37.97;17.60;;;10.20;99.90;;;;;;5022017;28;20026;-88
2024/02/28 09:40:22;;;;;;;41.50;16.80;;;10.20;99.90;;;;;;5032264;28;20116;-89
2024/02/28 09:42:57;;;;;;;43.15;17.38;;;10.20;99.90;;;;;;5039884;28;20061;-89
2024/02/28 09:45:24;;;;;;;39.75;15.43;;;10.20;99.90;;;;;;5029998;28;20018;-89
2024/02/28 09:47:50;;;;;;;37.35;15.73;;;10.20;99.90;;;;;;5033140;28;20021;-88
2024/02/28 09:50:17;;;;;;;37.92;16.63;;;10.20;99.90;;;;;;5027870;28;20112;-87
2024/02/28 09:52:43;;;;;;;44.58;16.80;;;10.20;99.90;;;;;;5022579;28;20029;-88
2024/02/28 09:55:08;;;;;;;44.08;17.08;;;10.10;99.90;;;;;;5035635;28;20085;-89
2024/02/28 09:57:36;;;;;;;37.65;15.35;;;10.10;99.90;;;;;;5021218;28;20053;-88
2024/02/28 10:00:01;;;;;;;38.60;15.88;;;10.20;99.90;;;;;;5015752;28;20042;-88
2024/02/28 10:02:28;;;;;;;42.13;16.65;;;10.10;99.90;;;;;;5019278;28;20083;-88
2024/02/28 10:04:57;;;;;;;41.33;16.75;;;10.10;99.90;;;;;;5024307;28;20472;-88
2024/02/28 10:07:23;;;;;;;34.72;15.50;;;10.10;99.90;;;;;;5027387;28;20026;-88
2024/02/28 10:09:48;;;;;;;44.88;16.17;;;10.20;99.90;;;;;;5022728;28;20459;-88
2024/02/28 10:12:14;;;;;;;39.22;16.92;;;10.20;99.90;;;;;;5028606;28;20032;-87
2024/02/28 10:14:40;;;;;;;39.30;17.80;;;10.10;99.90;;;;;;5025092;28;20025;-89
2024/02/28 10:17:08;;;;;;;39.83;15.32;;;10.20;99.90;;;;;;5023693;28;20523;-88
2024/02/28 10:19:33;;;;;;;41.25;16.08;;;10.20;99.90;;;;;;5028151;28;20085;-88
2024/02/28 10:21:59;;;;;;;49.70;18.05;;;10.20;99.90;;;;;;5020525;28;20431;-87
2024/02/28 10:24:25;;;;;;;50.95;17.85;;;10.20;99.90;;;;;;5015757;28;20022;-88
2024/02/28 10:26:56;;;;;;;47.60;16.27;;;10.20;99.90;;;;;;5028351;28;20121;-88
2024/02/28 10:29:25;;;;;;;39.15;16.05;;;10.20;99.90;;;;;;5027697;28;20033;-88
2024/02/28 10:31:51;;;;;;;41.27;16.13;;;10.10;99.90;;;;;;5021951;28;20207;-88
2024/02/28 10:34:18;;;;;;;48.72;17.40;;;10.20;99.90;;;;;;5030039;28;20292;-88
2024/02/28 10:36:45;;;;;;;40.85;16.80;;;10.20;99.90;;;;;;5031398;28;20395;-88
2024/02/28 10:39:11;;;;;;;40.15;16.08;;;10.20;99.90;;;;;;5025513;28;20176;-88
2024/02/28 10:41:41;;;;;;;42.53;17.08;;;10.20;99.90;;;;;;5028525;28;20022;-89
2024/02/28 10:44:07;;;;;;;50.90;17.00;;;10.20;99.90;;;;;;5022488;28;20036;-88
2024/02/28 10:46:32;;;;;;;37.65;16.73;;;10.20;99.90;;;;;;5022677;28;20018;-88
2024/02/28 10:48:58;;;;;;;38.63;17.27;;;10.20;99.90;;;;;;5023419;28;20030;-89
2024/02/28 10:51:27;;;;;;;43.08;15.77;;;10.20;99.90;;;;;;5027761;28;20025;-88
2024/02/28 10:54:13;;;;;;;45.00;16.15;;;10.20;99.90;;;;;;5028236;28;20133;-89
2024/02/28 10:56:40;;;;;;;42.45;17.33;;;10.20;99.90;;;;;;5024561;28;20034;-89
2024/02/28 10:59:07;;;;;;;44.97;17.48;;;10.20;99.90;;;;;;5020868;28;20033;-88
2024/02/28 11:01:41;;;;;;;41.47;16.80;;;10.20;99.90;;;;;;5023439;28;20664;-88
2024/02/28 11:04:08;;;;;;;34.72;15.52;;;10.20;99.90;;;;;;5026359;28;20025;-88
2024/02/28 11:06:33;;;;;;;44.53;17.27;;;10.20;99.90;;;;;;5031751;28;20479;-88
2024/02/28 11:09:00;;;;;;;45.45;17.20;;;10.20;99.90;;;;;;5024665;28;20036;-88
2024/02/28 11:11:33;;;;;;;35.00;16.00;;;10.20;99.90;;;;;;5020757;28;20089;-89
2024/02/28 11:14:02;;;;;;;40.90;16.67;;;10.20;99.90;;;;;;5038327;28;20022;-89
2024/02/28 11:16:29;;;;;;;39.90;16.00;;;10.30;99.90;;;;;;5025250;28;20029;-88
2024/02/28 11:18:55;;;;;;;41.55;16.15;;;10.20;99.90;;;;;;5024025;28;20071;-88
2024/02/28 11:21:24;;;;;;;42.88;16.88;;;10.30;99.90;;;;;;5018426;28;20109;-88
2024/02/28 11:23:50;;;;;;;38.58;17.17;;;10.30;99.90;;;;;;5022522;28;20029;-88
2024/02/28 11:26:16;;;;;;;44.03;17.48;;;10.30;99.90;;;;;;5017241;28;20022;-88
2024/02/28 11:28:41;;;;;;;45.80;16.70;;;10.30;99.90;;;;;;5022699;28;20025;-87
2024/02/28 11:31:08;;;;;;;43.22;17.65;;;10.40;99.90;;;;;;5022798;28;20117;-88
2024/02/28 11:33:35;;;;;;;47.83;17.58;;;10.60;99.90;;;;;;5035734;28;20378;-88
2024/02/28 11:36:03;;;;;;;39.00;16.67;;;10.80;99.90;;;;;;5025736;28;20563;-87
2024/02/28 11:38:28;;;;;;;36.65;15.32;;;11.10;99.90;;;;;;5028872;28;20092;-88
2024/02/28 11:40:57;;;;;;;41.85;16.63;;;11.30;99.90;;;;;;5021254;28;20026;-88
2024/02/28 11:43:23;;;;;;;42.28;16.40;;;11.30;99.90;;;;;;5020119;28;20049;-89
2024/02/28 11:45:49;;;;;;;44.88;16.15;;;11.30;99.90;;;;;;5018947;28;20037;-88
2024/02/28 11:48:16;;;;;;;40.38;16.60;;;11.20;99.90;;;;;;5027355;28;20102;-88
2024/02/28 11:50:42;;;;;;;46.40;18.10;;;11.10;99.90;;;;;;5023151;28;20447;-89
2024/02/28 11:53:08;;;;;;;45.05;16.48;;;11.10;99.90;;;;;;5017748;28;20035;-88
2024/02/28 11:55:34;;;;;;;46.05;16.92;;;11.10;99.90;;;;;;5023305;28;20029;-89
2024/02/28 11:58:00;;;;;;;41.97;16.73;;;11.10;99.90;;;;;;5024545;28;20117;-88
2024/02/28 12:00:26;;;;;;;45.95;18.90;;;10.90;99.90;;;;;;5019785;28;20109;-88
2024/02/28 12:02:52;;;;;;;49.60;17.13;;;10.80;99.90;;;;;;5019365;28;20026;-89
2024/02/28 12:05:19;;;;;;;49.03;17.75;;;10.70;99.90;;;;;;5011465;28;20029;-88
2024/02/28 12:07:45;;;;;;;39.28;16.13;;;10.60;99.90;;;;;;5019361;28;20538;-88
2024/02/28 12:10:11;;;;;;;44.90;16.95;;;10.60;99.90;;;;;;5030014;28;20037;-87
2024/02/28 12:12:38;;;;;;;41.70;16.77;;;10.60;99.90;;;;;;5029389;28;20152;-90
2024/02/28 12:15:05;;;;;;;43.15;17.73;;;10.60;99.90;;;;;;5024801;28;20407;-88
2024/02/28 12:17:31;;;;;;;41.70;17.15;;;10.50;99.90;;;;;;5014597;28;20018;-88
2024/02/28 12:19:59;;;;;;;34.55;15.75;;;10.50;99.90;;;;;;5030700;28;20383;-90
2024/02/28 12:22:25;;;;;;;39.67;16.88;;;10.50;99.90;;;;;;5031011;28;20029;-87